Terminal Aerodrome Forecast
Issued by NWS

Home | Current Version | Previous Version | Text Only | Print | Product List | Glossary On
Versions: 1 2 3 4 5 6 7 8 9 10 11 12 13 14 15 16 17 18 19 20
000
FTUS44 KBMX 031100
TAFTOI
TAF
KTOI 031129Z 0312/0412 14003KT 1SM BR OVC004
     FM031500 17004KT 4SM BR OVC008
     FM031800 20007KT 5SM BR OVC015
     FM040400 18004KT 2SM BR OVC003=

USA.gov is the U.S. government's official web portal to all federal, state and local government web resources and services.